Flight Track Log - Related Links

Times and Time Zones

All times are in EDT time to prevent confusion due to time zone crossing. See the DAL268 flight status page for this flight to view local times or setup timezone preferences in your user account.

Time Position Orientation Groundspeed Altitude Reporting Facility
EDT Latitude Longitude Course Direction KTS MPH feet Rate Location/Type
Wed 02:55:51 PM 37.6312 -122.3640 31° Northeast 163 188 600  Level FlightAware ADS-B
Wed 02:56:04 PM 37.6394 -122.3570 34° Northeast 174 200 1,100 2,118 Climbing FlightAware ADS-B
Wed 02:56:08 PM 37.6417 -122.3540 46° Northeast 180 207 1,200 2,182 Climbing FlightAware ADS-B
Wed 02:56:15 PM 37.6457 -122.3480 50° Northeast 184 212 1,500 2,077 Climbing FlightAware ADS-B
Wed 02:56:34 PM 37.6564 -122.3330 48° Northeast 190 219 2,100 1,846 Climbing FlightAware ADS-B
Wed 02:56:41 PM 37.6610 -122.3270 46° Northeast 205 236 2,300 1,800 Climbing FlightAware ADS-B
Wed 02:56:54 PM 37.6697 -122.3150 48° Northeast 220 253 2,700 1,655 Climbing FlightAware ADS-B
Wed 02:57:10 PM 37.6816 -122.2990 47° Northeast 241 277 3,100 1,412 Climbing FlightAware ADS-B
Wed 02:57:28 PM 37.6965 -122.2790 47° Northeast 269 310 3,500 2,057 Climbing FlightAware ADS-B
Wed 02:57:45 PM 37.7109 -122.2600 46° Northeast 273 314 4,300 3,385 Climbing FlightAware ADS-B
Wed 02:58:07 PM 37.7298 -122.2350 46° Northeast 267 307 5,700 3,450 Climbing FlightAware ADS-B
Wed 02:58:25 PM 37.7449 -122.2140 48° Northeast 271 312 6,600 3,000 Climbing FlightAware ADS-B
Wed 02:58:29 PM 37.7487 -122.2080 51° Northeast 272 313 6,800 2,800 Climbing FlightAware ADS-B
Wed 02:58:40 PM 37.7550 -122.1940 60° Northeast 275 316 7,300 2,526 Climbing FlightAware ADS-B
Wed 02:58:48 PM 37.7583 -122.1820 71° East 278 320 7,600 2,571 Climbing FlightAware ADS-B
Wed 02:59:01 PM 37.7637 -122.1610 72° East 287 330 8,200 2,667 Climbing FlightAware ADS-B
Wed 02:59:06 PM 37.7660 -122.1520 72° East 289 333 8,400 2,286 Climbing FlightAware ADS-B
Wed 02:59:22 PM 37.7734 -122.1280 69° East 293 337 9,000 2,710 Climbing FlightAware ADS-B
Wed 02:59:37 PM 37.7814 -122.1040 67° East 294 338 9,800 2,553 Climbing FlightAware ADS-B
Wed 03:00:09 PM 37.7967 -122.0520 70° East 314 361 11,000 1,524 Climbing FlightAware ADS-B
Wed 03:00:40 PM 37.8115 -121.9920 73° East 356 410 11,400 1,446 Climbing FlightAware ADS-B
Wed 03:01:32 PM 37.8414 -121.8840 71° East 377 434 13,000 1,852 Climbing FlightAware ADS-B
Wed 03:02:01 PM 37.8587 -121.8220 71° East 405 466 13,900 2,000 Climbing FlightAware ADS-B
Wed 03:02:32 PM 37.8769 -121.7510 72° East 413 475 15,000 2,262 Climbing FlightAware ADS-B
Wed 03:03:02 PM 37.8953 -121.6810 72° East 419 482 16,200 2,262 Climbing FlightAware ADS-B
Wed 03:03:33 PM 37.9143 -121.6100 71° East 423 487 17,300 2,060 Climbing FlightAware ADS-B
Wed 03:04:09 PM 37.9376 -121.5230 71° East 430 495 18,500 2,029 Climbing FlightAware ADS-B
Wed 03:04:41 PM 37.9580 -121.4460 71° East 436 502 19,600 1,927 Climbing FlightAware ADS-B
Wed 03:05:58 PM 38.0080 -121.2580 71° East 446 513 22,000 1,817 Climbing FlightAware ADS-B
Wed 03:06:30 PM 38.0290 -121.1790 71° East 449 517 22,900 1,727 Climbing FlightAware ADS-B
Wed 03:07:04 PM 38.0510 -121.0930 72° East 455 524 23,900 1,583 Climbing FlightAware ADS-B
Wed 03:07:42 PM 38.0770 -120.9960 71° East 459 528 24,800 1,415 Climbing FlightAware ADS-B
Wed 03:08:50 PM 38.1190 -120.8200 73° East 466 536 26,400 1,435 Climbing FlightAware ADS-B
Wed 03:10:00 PM 38.1630 -120.6360 73° East 468 539 28,100 1,500 Climbing FlightAware ADS-B
Wed 03:10:34 PM 38.1840 -120.5470 73° East 464 534 29,000 1,594 Climbing FlightAware ADS-B
Wed 03:11:04 PM 38.2030 -120.4680 73° East 461 531 29,800 1,412 Climbing FlightAware ADS-B
Wed 03:11:42 PM 38.2270 -120.3690 73° East 463 533 30,600 1,313 Climbing FlightAware ADS-B
Wed 03:12:40 PM 38.2622 -120.2185 73° East 462 532 31,900 1,277 Climbing FlightAware ADS-B
Wed 03:13:16 PM 38.2769 -120.1556 73° East 462 532 32,600 1,147 Climbing FlightAware ADS-B
Wed 03:13:48 PM 38.3029 -120.0443 73° East 461 531 33,200 1,116 Climbing FlightAware ADS-B
Wed 03:15:25 PM 38.3612 -119.7931 73° East 456 525 35,000 788 Climbing FlightAware ADS-B
Wed 03:16:05 PM 38.3846 -119.6916 74° East 452 520 35,000  Level FlightAware ADS-B
Wed 03:16:38 PM 38.4033 -119.6096 74° East 452 520 35,000  Level FlightAware ADS-B
Wed 03:17:17 PM 38.4274 -119.5040 74° East 453 521 35,000  Level FlightAware ADS-B
Wed 03:17:57 PM 38.4500 -119.4045 74° East 455 524 35,000  Level FlightAware ADS-B
Wed 03:18:28 PM 38.4680 -119.3250 74° East 456 525 35,000  Level FlightAware ADS-B
Wed 03:19:08 PM 38.4913 -119.2219 74° East 457 526 35,000  Level FlightAware ADS-B
Wed 03:19:38 PM 38.5051 -119.1439 77° East 458 527 35,000  Level FlightAware ADS-B
Wed 03:20:08 PM 38.5147 -119.0609 82° East 459 528 35,000  Level FlightAware ADS-B
Wed 03:20:48 PM 38.5254 -118.9535 83° East 461 531 35,000  Level FlightAware ADS-B
Wed 03:22:01 PM 38.5450 -118.7580 83° East 461 531 35,000  Level FlightAware ADS-B
Wed 03:22:25 PM 38.5510 -118.6960 83° East 462 532 35,000  Level FlightAware ADS-B
Wed 03:23:45 PM 38.5720 -118.4760 83° East 463 533 35,000  Level FlightAware ADS-B
Wed 03:24:22 PM 38.5820 -118.3750 83° East 462 532 35,000  Level FlightAware ADS-B
Wed 03:24:52 PM 38.5890 -118.2930 84° East 462 532 35,000  Level FlightAware ADS-B
Wed 03:25:23 PM 38.5970 -118.2100 83° East 462 532 35,000  Level FlightAware ADS-B
Wed 03:25:55 PM 38.6050 -118.1220 83° East 461 531 35,000  Level FlightAware ADS-B
Wed 03:26:14 PM 38.6090 -118.0800 83° East 461 531 35,000  Level FlightAware ADS-B
Wed 03:27:42 PM 38.6290 -117.8770 83° East 461 531 35,000  Level FlightAware ADS-B
Wed 03:28:06 PM 38.6340 -117.8220 83° East 461 531 35,000  Level FlightAware ADS-B
Wed 03:28:41 PM 38.6420 -117.7420 83° East 461 531 35,000  Level FlightAware ADS-B
Wed 03:29:17 PM 38.6500 -117.6590 83° East 461 531 35,000  Level FlightAware ADS-B
Wed 03:29:54 PM 38.6580 -117.5730 83° East 461 531 35,000  Level FlightAware ADS-B
Wed 03:30:40 PM 38.6680 -117.4670 83° East 461 531 35,000  Level FlightAware ADS-B
Wed 03:31:14 PM 38.6760 -117.3890 82° East 461 531 35,000  Level FlightAware ADS-B
Wed 03:31:50 PM 38.6840 -117.3060 83° East 461 531 35,000  Level FlightAware ADS-B
Wed 03:32:26 PM 38.6910 -117.2230 84° East 461 531 35,000  Level FlightAware ADS-B
Wed 03:33:03 PM 38.7000 -117.1380 82° East 461 531 35,000  Level FlightAware ADS-B
Wed 03:33:38 PM 38.7070 -117.0570 84° East 461 531 35,000  Level FlightAware ADS-B
Wed 03:34:14 PM 38.7150 -116.9740 83° East 461 531 35,000  Level FlightAware ADS-B
Wed 03:35:15 PM 38.7290 -116.8330 83° East 461 531 35,000  Level FlightAware ADS-B
Wed 03:35:51 PM 38.7370 -116.7500 83° East 461 531 35,000  Level FlightAware ADS-B
Wed 03:36:03 PM 38.7390 -116.7230 85° East 461 531 35,000  Level FlightAware ADS-B
Wed 03:36:49 PM 38.8136 -116.3803 85° East 470 541 35,000  Level Salt Lake Center
Wed 03:37:51 PM 38.8367 -116.2153 80° East 470 541 35,000  Level Salt Lake Center
Wed 03:38:53 PM 38.8650 -116.0167 80° East 471 542 35,000  Level Salt Lake Center
Wed 03:39:55 PM 38.8883 -115.8528 80° East 468 539 35,000  Level Salt Lake Center
Wed 03:40:57 PM 38.9108 -115.6869 80° East 469 540 35,000  Level Salt Lake Center
Wed 03:41:59 PM 38.9331 -115.5217 80° East 470 541 35,000  Level Salt Lake Center
Wed 03:43:01 PM 38.9556 -115.3586 80° East 472 543 35,000  Level Salt Lake Center
Wed 03:44:03 PM 38.9781 -115.1933 80° East 472 543 35,000  Level Salt Lake Center
Wed 03:45:04 PM 39.0039 -114.9956 80° East 469 540 35,000  Level Salt Lake Center
Wed 03:46:06 PM 39.0269 -114.8292 80° East 471 542 35,000  Level Salt Lake Center
Wed 03:52:19 PM 39.1557 -113.7886 80° East 475 547 35,000  Level FlightAware ADS-B
Wed 03:52:54 PM 39.1660 -113.7090 80° East 473 544 35,000  Level FlightAware ADS-B
Wed 03:53:44 PM 39.1850 -113.5460 81° East 474 545 35,000  Level FlightAware ADS-B
Wed 03:54:19 PM 39.1950 -113.4560 82° East 475 547 35,000  Level FlightAware ADS-B
Wed 03:55:22 PM 39.2272 -113.2775 77° East 479 551 35,000 346 Level FlightAware ADS-B
Wed 03:56:03 PM 39.2828 -113.1887 51° Northeast 482 555 35,600 815 Climbing FlightAware ADS-B
Wed 03:56:43 PM 39.3273 -113.0876 60° Northeast 476 548 36,100 828 Climbing FlightAware ADS-B
Wed 03:57:30 PM 39.3559 -112.9600 74° East 474 545 36,800 844 Climbing FlightAware ADS-B
Wed 03:57:47 PM 39.3666 -112.9150 73° East 474 545 37,000 400 Climbing FlightAware ADS-B
Wed 03:58:00 PM 39.3754 -112.8790 72° East 475 547 37,000  Level FlightAware ADS-B
Wed 03:58:31 PM 39.3957 -112.7960 72° East 472 543 37,000  Level FlightAware ADS-B
Wed 03:59:06 PM 39.4191 -112.7010 72° East 471 542 37,000  Level FlightAware ADS-B
Wed 03:59:33 PM 39.4368 -112.6289 72° East 472 543 37,000  Level FlightAware ADS-B
Wed 03:59:40 PM 39.4414 -112.6100 72° East 472 543 37,000  Level FlightAware ADS-B
Wed 04:00:11 PM 39.4614 -112.5290 72° East 472 543 37,000  Level FlightAware ADS-B
Wed 04:00:42 PM 39.4839 -112.4450 71° East 473 544 37,000  Level FlightAware ADS-B
Wed 04:01:12 PM 39.5055 -112.3640 71° East 474 545 37,000  Level FlightAware ADS-B
Wed 04:01:42 PM 39.5268 -112.2830 71° East 474 545 37,000  Level FlightAware ADS-B
Wed 04:02:14 PM 39.5486 -112.1990 71° East 475 547 37,000  Level FlightAware ADS-B
Wed 04:02:46 PM 39.5711 -112.1120 71° East 474 545 37,000  Level FlightAware ADS-B
Wed 04:03:20 PM 39.5947 -112.0210 71° East 474 545 37,000  Level FlightAware ADS-B
Wed 04:03:51 PM 39.6160 -111.9380 72° East 474 545 37,000  Level FlightAware ADS-B
Wed 04:04:07 PM 39.6265 -111.8968 72° East 474 545 37,000  Level FlightAware ADS-B
Wed 04:04:26 PM 39.6400 -111.8440 72° East 474 545 37,000  Level FlightAware ADS-B
Wed 04:04:58 PM 39.6623 -111.7570 72° East 474 545 37,000  Level FlightAware ADS-B
Wed 04:04:59 PM 39.6623 -111.7565 84° East 474 545 37,000  Level FlightAware ADS-B
Wed 04:05:33 PM 39.6859 -111.6640 72° East 475 547 37,000  Level FlightAware ADS-B
Wed 04:06:09 PM 39.7112 -111.5640 72° East 476 548 37,000  Level FlightAware ADS-B
Wed 04:06:31 PM 39.7210 -111.5254 72° East 477 549 37,000  Level FlightAware ADS-B
Wed 04:06:40 PM 39.7319 -111.4830 72° East 476 548 37,000  Level FlightAware ADS-B
Wed 04:07:10 PM 39.7525 -111.4010 72° East 477 549 37,000  Level FlightAware ADS-B
Wed 04:07:33 PM 39.7674 -111.3412 72° East 476 548 37,000  Level FlightAware ADS-B
Wed 04:07:40 PM 39.7729 -111.3190 72° East 476 548 37,000  Level FlightAware ADS-B
Wed 04:08:04 PM 39.7889 -111.2551 72° East 477 549 37,000  Level FlightAware ADS-B
Wed 04:08:10 PM 39.7935 -111.2370 72° East 477 549 37,000  Level FlightAware ADS-B
Wed 04:08:36 PM 39.8107 -111.1680 72° East 477 549 37,000  Level FlightAware ADS-B
Wed 04:08:40 PM 39.8140 -111.1550 72° East 477 549 37,000  Level FlightAware ADS-B
Wed 04:09:10 PM 39.8343 -111.0730 72° East 478 550 37,000  Level FlightAware ADS-B
Wed 04:09:13 PM 39.8360 -111.0661 73° East 478 550 37,000  Level FlightAware ADS-B
Wed 04:09:42 PM 39.8557 -110.9860 72° East 478 550 37,000  Level FlightAware ADS-B
Wed 04:09:43 PM 39.8561 -110.9847 67° East 478 550 37,000  Level FlightAware ADS-B
Wed 04:10:12 PM 39.8763 -110.9030 72° East 478 550 37,000  Level FlightAware ADS-B
Wed 04:10:16 PM 39.8777 -110.8973 73° East 478 550 37,000  Level FlightAware ADS-B
Wed 04:10:49 PM 39.9008 -110.8035 72° East 479 551 37,000  Level FlightAware ADS-B
Wed 04:11:14 PM 39.9174 -110.7350 72° East 478 550 37,000  Level FlightAware ADS-B
Wed 04:11:19 PM 39.9203 -110.7236 72° East 479 551 37,000  Level FlightAware ADS-B
Wed 04:11:51 PM 39.9420 -110.6347 72° East 478 550 37,000  Level FlightAware ADS-B
Wed 04:12:21 PM 39.9617 -110.5534 72° East 478 550 37,000  Level FlightAware ADS-B
Wed 04:12:51 PM 39.9819 -110.4700 72° East 478 550 37,000  Level FlightAware ADS-B (KGUC)
Wed 04:13:23 PM 40.0023 -110.3856 72° East 478 550 37,000  Level FlightAware ADS-B
Wed 04:13:54 PM 40.0226 -110.3011 73° East 478 550 37,000  Level FlightAware ADS-B
Wed 04:14:24 PM 40.0421 -110.2196 73° East 479 551 37,000  Level FlightAware ADS-B
Wed 04:15:07 PM 40.0715 -110.0968 73° East 478 550 37,000  Level FlightAware ADS-B
Wed 04:15:37 PM 40.0909 -110.0149 73° East 478 550 37,000  Level FlightAware ADS-B
Wed 04:16:11 PM 40.1134 -109.9197 73° East 478 550 37,000  Level FlightAware ADS-B
Wed 04:16:42 PM 40.1331 -109.8358 73° East 480 552 37,000  Level FlightAware ADS-B
Wed 04:17:13 PM 40.1534 -109.7495 73° East 480 552 37,000  Level FlightAware ADS-B
Wed 04:17:43 PM 40.1727 -109.6667 73° East 480 552 37,000  Level FlightAware ADS-B
Wed 04:18:17 PM 40.1949 -109.5718 73° East 480 552 37,000  Level FlightAware ADS-B
Wed 04:18:57 PM 40.2209 -109.4595 73° East 481 554 37,000  Level FlightAware ADS-B
Wed 04:19:27 PM 40.2393 -109.3799 73° East 480 552 37,000  Level FlightAware ADS-B
Wed 04:19:58 PM 40.2594 -109.2926 73° East 481 554 37,000  Level FlightAware ADS-B
Wed 04:20:29 PM 40.2792 -109.2060 73° East 482 555 37,000  Level FlightAware ADS-B
Wed 04:20:59 PM 40.2985 -109.1214 73° East 483 556 37,000  Level FlightAware ADS-B
Wed 04:21:35 PM 40.3200 -109.0271 73° East 484 557 37,000  Level FlightAware ADS-B
Wed 04:22:13 PM 40.3457 -108.9133 73° East 485 558 37,000  Level FlightAware ADS-B
Wed 04:22:43 PM 40.3647 -108.8291 73° East 486 559 37,000  Level FlightAware ADS-B
Wed 04:23:15 PM 40.3850 -108.7389 74° East 487 560 37,000  Level FlightAware ADS-B
Wed 04:24:06 PM 40.4172 -108.5944 74° East 485 558 37,000  Level FlightAware ADS-B
Wed 04:24:47 PM 40.4421 -108.4822 74° East 484 557 37,000  Level FlightAware ADS-B
Wed 04:25:18 PM 40.4615 -108.3947 74° East 483 556 37,000  Level FlightAware ADS-B
Wed 04:25:48 PM 40.4800 -108.3102 74° East 482 555 37,000  Level FlightAware ADS-B
Wed 04:26:20 PM 40.4988 -108.2247 74° East 481 554 37,000  Level FlightAware ADS-B
Wed 04:26:50 PM 40.5183 -108.1349 74° East 479 551 37,000  Level FlightAware ADS-B
Wed 04:27:23 PM 40.5372 -108.0486 74° East 477 549 37,000  Level FlightAware ADS-B
Wed 04:27:53 PM 40.5558 -107.9627 74° East 477 549 37,000  Level FlightAware ADS-B
Wed 04:28:30 PM 40.5787 -107.8565 74° East 477 549 37,000  Level FlightAware ADS-B
Wed 04:29:00 PM 40.5965 -107.7734 74° East 477 549 37,000  Level FlightAware ADS-B
Wed 04:29:32 PM 40.6131 -107.6960 74° East 477 549 37,000  Level FlightAware ADS-B
Wed 04:30:04 PM 40.6344 -107.5955 74° East 477 549 37,000  Level FlightAware ADS-B
Wed 04:30:35 PM 40.6527 -107.5090 74° East 474 545 37,000  Level FlightAware ADS-B
Wed 04:31:05 PM 40.6698 -107.4284 74° East 473 544 37,000  Level FlightAware ADS-B
Wed 04:31:45 PM 40.6932 -107.3171 74° East 473 544 37,000  Level FlightAware ADS-B
Wed 04:32:37 PM 40.7230 -107.1720 75° East 472 543 37,000  Level FlightAware ADS-B
Wed 04:33:48 PM 40.7633 -106.9803 74° East 476 548 37,000  Level FlightAware ADS-B (KANK)
Wed 04:34:51 PM 40.8007 -106.7979 75° East 476 548 37,000  Level FlightAware ADS-B (KEIK)
Wed 04:35:42 PM 40.8268 -106.6698 75° East 476 548 37,000  Level FlightAware ADS-B (KEIK)
Wed 04:36:20 PM 40.8517 -106.5471 75° East 476 548 37,000  Level FlightAware ADS-B (KEIK)
Wed 04:37:20 PM 40.8850 -106.3830 75° East 477 549 37,000  Level FlightAware ADS-B
Wed 04:37:58 PM 40.9060 -106.2770 75° East 478 550 37,000  Level FlightAware ADS-B
Wed 04:38:31 PM 40.9250 -106.1820 75° East 479 551 37,000  Level FlightAware ADS-B
Wed 04:39:28 PM 40.9567 -106.0204 75° East 481 554 37,000  Level FlightAware ADS-B (KEIK)
Wed 04:40:42 PM 40.9987 -105.8058 75° East 482 555 37,000  Level FlightAware ADS-B (KEIK)
Wed 04:41:14 PM 41.0131 -105.7315 76° East 483 556 37,000  Level FlightAware ADS-B (KEIK)
Wed 04:42:13 PM 41.0485 -105.5485 76° East 484 557 37,000  Level FlightAware ADS-B (KEIK)
Wed 04:43:00 PM 41.0740 -105.4130 76° East 484 557 37,000 330 Level FlightAware ADS-B
Wed 04:43:44 PM 41.0986 -105.2863 76° East 486 559 37,500 732 Climbing FlightAware ADS-B (KEIK)
Wed 04:45:03 PM 41.1415 -105.0588 76° East 484 557 38,500 638 Climbing FlightAware ADS-B (KEIK)
Wed 04:46:05 PM 41.1740 -104.8820 76° East 484 557 39,000 316 Climbing FlightAware ADS-B
Wed 04:46:38 PM 41.1909 -104.7932 76° East 482 555 39,000  Level FlightAware ADS-B (KEIK)
Wed 04:47:31 PM 41.2203 -104.6332 76° East 483 556 39,000  Level FlightAware ADS-B (KEIK)
Wed 04:48:12 PM 41.2416 -104.5165 76° East 485 558 39,000  Level FlightAware ADS-B (KEIK)
Wed 04:49:05 PM 41.2690 -104.3650 76° East 487 560 39,000  Level FlightAware ADS-B
Wed 04:49:44 PM 41.2900 -104.2490 76° East 490 564 39,000  Level FlightAware ADS-B
Wed 04:50:23 PM 41.3100 -104.1350 77° East 492 566 39,000  Level FlightAware ADS-B
Wed 04:50:55 PM 41.3270 -104.0420 76° East 493 567 39,000  Level FlightAware ADS-B
Wed 04:51:36 PM 41.3490 -103.9190 77° East 496 571 39,000  Level FlightAware ADS-B
Wed 04:52:04 PM 41.3630 -103.8360 77° East 497 572 39,000  Level FlightAware ADS-B
Wed 04:53:02 PM 41.3940 -103.6620 77° East 499 574 39,000  Level FlightAware ADS-B
Wed 04:53:30 PM 41.4080 -103.5790 77° East 500 575 39,000  Level FlightAware ADS-B
Wed 04:54:07 PM 41.4270 -103.4690 77° East 501 577 39,000  Level FlightAware ADS-B
Wed 04:55:02 PM 41.4550 -103.3030 77° East 503 579 39,000  Level FlightAware ADS-B
Wed 04:55:40 PM 41.4730 -103.2010 77° East 503 579 39,000  Level FlightAware ADS-B
Wed 04:56:16 PM 41.4890 -103.1080 77° East 503 579 39,000  Level FlightAware ADS-B
Wed 04:56:48 PM 41.5100 -102.9820 77° East 504 580 39,000  Level FlightAware ADS-B
Wed 04:57:22 PM 41.5270 -102.8800 77° East 502 578 39,000  Level FlightAware ADS-B
Wed 04:58:15 PM 41.5530 -102.7230 77° East 502 578 39,000  Level FlightAware ADS-B
Wed 04:58:48 PM 41.5670 -102.6380 78° East 501 577 39,000  Level FlightAware ADS-B
Wed 04:59:24 PM 41.5830 -102.5460 77° East 501 577 39,000  Level FlightAware ADS-B
Wed 04:59:49 PM 41.5940 -102.4820 77° East 501 577 39,000  Level FlightAware ADS-B
Wed 05:01:01 PM 41.6260 -102.2970 77° East 501 577 39,000  Level FlightAware ADS-B
Wed 05:01:53 PM 41.6590 -102.0690 79° East 504 580 39,000  Level FlightAware ADS-B
Wed 05:02:26 PM 41.6760 -101.9600 78° East 504 580 39,000  Level FlightAware ADS-B
Wed 05:02:59 PM 41.6890 -101.8790 78° East 504 580 39,000  Level FlightAware ADS-B
Wed 05:03:57 PM 41.7120 -101.7280 78° East 504 580 39,000  Level FlightAware ADS-B
Wed 05:04:45 PM 41.7320 -101.6040 78° East 504 580 39,000  Level FlightAware ADS-B
Wed 05:05:35 PM 41.7530 -101.4740 78° East 504 580 39,000  Level FlightAware ADS-B
Wed 05:06:11 PM 41.7680 -101.3800 78° East 504 580 39,000  Level FlightAware ADS-B
Wed 05:07:13 PM 41.7930 -101.2190 78° East 504 580 39,000  Level FlightAware ADS-B
Wed 05:07:49 PM 41.8080 -101.1250 78° East 504 580 39,000  Level FlightAware ADS-B
Wed 05:08:25 PM 41.8230 -101.0320 78° East 504 580 39,000  Level FlightAware ADS-B
Wed 05:09:14 PM 41.8430 -100.9040 78° East 504 580 39,000  Level FlightAware ADS-B
Wed 05:10:14 PM 41.8680 -100.7480 78° East 504 580 39,000  Level FlightAware ADS-B
Wed 05:10:50 PM 41.8830 -100.6540 78° East 504 580 39,000  Level FlightAware ADS-B
Wed 05:11:39 PM 41.9030 -100.5270 78° East 504 580 39,000  Level FlightAware ADS-B
Wed 05:12:25 PM 41.9220 -100.4070 78° East 504 580 39,000 -2,069 Level FlightAware ADS-B
Wed 05:13:35 PM 41.9700 -99.9886 78° East 492 566 35,000 -593 Descending Minneapolis Center
Wed 05:19:10 PM 42.1100 -98.9290 78° East 505 581 35,000  Level FlightAware ADS-B
Wed 05:20:11 PM 42.1340 -98.7430 80° East 508 585 35,000  Level FlightAware ADS-B
Wed 05:21:04 PM 42.1560 -98.5730 80° East 512 589 35,000  Level FlightAware ADS-B
Wed 05:21:33 PM 42.1670 -98.4840 81° East 514 592 35,000  Level FlightAware ADS-B
Wed 05:22:05 PM 42.1800 -98.3810 80° East 516 594 35,000  Level FlightAware ADS-B
Wed 05:22:59 PM 42.2010 -98.2090 81° East 519 597 35,000  Level FlightAware ADS-B
Wed 05:23:49 PM 42.2200 -98.0500 81° East 519 597 35,000  Level FlightAware ADS-B
Wed 05:24:52 PM 42.2450 -97.8480 80° East 521 600 35,000  Level FlightAware ADS-B
Wed 05:25:18 PM 42.2540 -97.7680 81° East 521 600 35,000  Level FlightAware ADS-B
Wed 05:25:51 PM 42.2670 -97.6630 80° East 521 600 35,000  Level FlightAware ADS-B
Wed 05:26:42 PM 42.2860 -97.4950 81° East 523 602 35,000  Level FlightAware ADS-B
Wed 05:27:24 PM 42.3020 -97.3610 81° East 524 603 35,000  Level FlightAware ADS-B
Wed 05:27:56 PM 42.3130 -97.2580 82° East 525 604 35,000  Level FlightAware ADS-B
Wed 05:28:25 PM 42.3240 -97.1650 81° East 528 608 35,000  Level FlightAware ADS-B
Wed 05:29:07 PM 42.3400 -97.0260 81° East 527 606 35,000  Level FlightAware ADS-B
Wed 05:30:08 PM 42.3620 -96.8270 81° East 524 603 35,000  Level FlightAware ADS-B
Wed 05:30:37 PM 42.3710 -96.7370 82° East 522 601 35,000  Level FlightAware ADS-B
Wed 05:31:32 PM 42.3910 -96.5570 81° East 519 597 35,000  Level FlightAware ADS-B
Wed 05:31:56 PM 42.3990 -96.4820 82° East 518 596 35,000  Level FlightAware ADS-B
Wed 05:32:35 PM 42.4120 -96.3560 82° East 516 594 35,000  Level FlightAware ADS-B
Wed 05:33:22 PM 42.4280 -96.2090 82° East 516 594 35,000  Level FlightAware ADS-B
Wed 05:34:26 PM 42.4490 -96.0050 82° East 516 594 35,000  Level FlightAware ADS-B
Wed 05:35:25 PM 42.4680 -95.8150 82° East 515 593 35,000  Level FlightAware ADS-B
Wed 05:36:01 PM 42.4800 -95.6990 82° East 515 593 35,000  Level FlightAware ADS-B
Wed 05:36:34 PM 42.4900 -95.5970 82° East 516 594 35,000  Level FlightAware ADS-B
Wed 05:37:06 PM 42.5000 -95.4910 83° East 518 596 35,000  Level FlightAware ADS-B
Wed 05:37:41 PM 42.5110 -95.3840 82° East 519 597 35,000  Level FlightAware ADS-B
Wed 05:38:31 PM 42.5219 -95.2674 83° East 520 598 35,000  Level FlightAware ADS-B (LPVM)
Wed 05:38:59 PM 42.5313 -95.1256 85° East 528 608 35,000  Level FlightAware ADS-B
Wed 05:39:09 PM 42.5328 -95.0939 86° East 529 609 35,000  Level FlightAware ADS-B (LPVM)
Wed 05:39:51 PM 42.5377 -94.9547 87° East 532 612 35,000  Level FlightAware ADS-B (LPVM)
Wed 05:40:21 PM 42.5401 -94.8662 88° East 533 613 35,000  Level FlightAware ADS-B
Wed 05:40:26 PM 42.5397 -94.8825 268° West 534 615 35,000  Level FlightAware ADS-B (LPVM)
Wed 05:41:23 PM 42.5450 -94.6510 88° East 536 617 35,000  Level FlightAware ADS-B
Wed 05:42:19 PM 42.5481 -94.4749 89° East 537 618 35,000  Level FlightAware ADS-B
Wed 05:42:52 PM 42.5503 -94.3576 89° East 538 619 35,000  Level FlightAware ADS-B (LPVM)
Wed 05:43:26 PM 42.5520 -94.2400 89° East 539 620 35,000  Level FlightAware ADS-B
Wed 05:44:05 PM 42.5548 -94.1016 88° East 541 623 35,000  Level FlightAware ADS-B (LPVM)
Wed 05:44:22 PM 42.5501 -94.3670 269° West 540 621 35,000  Level FlightAware ADS-B
Wed 05:45:27 PM 42.5590 -93.8250 89° East 540 621 35,000  Level FlightAware ADS-B
Wed 05:46:19 PM 42.5620 -93.6490 89° East 538 619 35,000  Level FlightAware ADS-B
Wed 05:47:12 PM 42.5640 -93.4730 89° East 538 619 35,000  Level FlightAware ADS-B
Wed 05:47:36 PM 42.5650 -93.3930 89° East 539 620 35,000  Level FlightAware ADS-B
Wed 05:48:25 PM 42.5670 -93.2260 89° East 540 621 35,000  Level FlightAware ADS-B
Wed 05:48:49 PM 42.5680 -93.1440 89° East 540 621 35,000  Level FlightAware ADS-B
Wed 05:49:51 PM 42.5700 -92.9320 89° East 541 623 35,000  Level FlightAware ADS-B
Wed 05:50:44 PM 42.5710 -92.7570 89° East 541 623 35,000  Level FlightAware ADS-B
Wed 05:51:31 PM 42.5716 -92.6024 90° East 542 624 35,000  Level FlightAware ADS-B (LPVM)
Wed 05:52:09 PM 42.5721 -92.4811 90° East 542 624 35,000  Level FlightAware ADS-B (LPVM)
Wed 05:52:50 PM 42.5725 -92.3271 90° East 541 623 35,000  Level FlightAware ADS-B (LPVM)
Wed 05:53:31 PM 42.5727 -92.1882 90° East 540 621 35,000  Level FlightAware ADS-B (LPVM)
Wed 05:54:12 PM 42.5728 -92.0815 90° East 539 620 35,000  Level FlightAware ADS-B (LPVM)
Wed 05:54:52 PM 42.5727 -91.9167 90° East 538 619 35,000  Level FlightAware ADS-B (LPVM)
Wed 05:55:29 PM 42.5725 -91.7949 90° East 537 618 35,000  Level FlightAware ADS-B (LPVM)
Wed 05:56:05 PM 42.5722 -91.6811 90° East 537 618 35,000  Level FlightAware ADS-B (LPVM)
Wed 05:56:49 PM 42.5715 -91.5313 90° East 537 618 35,000  Level FlightAware ADS-B (LPVM)
Wed 05:57:49 PM 42.5703 -91.3246 90° East 539 620 35,000  Level FlightAware ADS-B (LPVM)
Wed 05:58:29 PM 42.5693 -91.1933 91° East 540 621 35,000  Level FlightAware ADS-B (LPVM)
Wed 05:59:11 PM 42.5681 -91.0442 91° East 541 623 35,000  Level FlightAware ADS-B (LPVM)
Wed 05:59:52 PM 42.5668 -90.9053 91° East 542 624 35,000  Level FlightAware ADS-B (LPVM)
Wed 06:00:26 PM 42.5660 -90.7960 91° East 542 624 35,000  Level FlightAware ADS-B
Wed 06:00:48 PM 42.5649 -90.7395 91° East 542 624 35,000  Level FlightAware ADS-B (LPVM)
Wed 06:01:30 PM 42.5632 -90.5984 91° East 542 624 35,000  Level FlightAware ADS-B (LPVM)
Wed 06:02:33 PM 42.5600 -90.3620 91° East 541 623 35,000  Level FlightAware ADS-B
Wed 06:03:25 PM 42.5570 -90.1860 91° East 540 621 35,000  Level FlightAware ADS-B
Wed 06:04:18 PM 42.5540 -90.0050 91° East 539 620 35,000  Level FlightAware ADS-B
Wed 06:05:06 PM 42.5510 -89.8520 91° East 538 619 35,000  Level FlightAware ADS-B
Wed 06:05:37 PM 42.5490 -89.7450 91° East 536 617 35,000  Level FlightAware ADS-B
Wed 06:06:33 PM 42.5450 -89.5540 92° East 536 617 35,000  Level FlightAware ADS-B
Wed 06:07:07 PM 42.5420 -89.4380 92° East 536 617 35,000  Level FlightAware ADS-B
Wed 06:07:55 PM 42.5380 -89.2790 92° East 535 616 35,000  Level FlightAware ADS-B
Wed 06:08:56 PM 42.5330 -89.0760 92° East 534 615 35,000  Level FlightAware ADS-B
Wed 06:09:24 PM 42.5310 -88.9800 92° East 534 615 35,000  Level FlightAware ADS-B
Wed 06:09:56 PM 42.5280 -88.8720 92° East 535 616 35,000  Level FlightAware ADS-B
Wed 06:10:48 PM 42.5230 -88.6990 92° East 536 617 35,000  Level FlightAware ADS-B
Wed 06:11:37 PM 42.5180 -88.5380 92° East 537 618 35,000  Level FlightAware ADS-B
Wed 06:12:29 PM 42.5120 -88.3660 93° East 538 619 35,000  Level FlightAware ADS-B
Wed 06:12:57 PM 42.5090 -88.2680 92° East 538 619 35,000  Level FlightAware ADS-B
Wed 06:13:58 PM 42.5020 -88.0640 93° East 537 618 35,000  Level FlightAware ADS-B
Wed 06:14:09 PM 42.4890 -88.0510 144° Southeast 537 618 35,000  Level FlightAware ADS-B
Wed 06:15:14 PM 42.4990 -87.8150 87° East 535 616 35,000  Level FlightAware ADS-B
Wed 06:15:33 PM 42.4990 -87.7470 90° East 534 615 35,000  Level FlightAware ADS-B
Wed 06:16:11 PM 42.5000 -87.6180 89° East 533 613 35,000  Level FlightAware ADS-B
Wed 06:17:00 PM 42.5000 -87.4540 90° East 532 612 35,000  Level FlightAware ADS-B
Wed 06:17:52 PM 42.4980 -87.2840 91° East 532 612 35,000  Level FlightAware ADS-B
Wed 06:18:28 PM 42.4970 -87.1600 91° East 532 612 35,000  Level FlightAware ADS-B
Wed 06:19:30 PM 42.4960 -86.9540 90° East 533 613 35,000  Level FlightAware ADS-B
Wed 06:20:29 PM 42.4940 -86.7580 91° East 533 613 35,000  Level FlightAware ADS-B
Wed 06:21:18 PM 42.4920 -86.5930 91° East 534 615 35,000  Level FlightAware ADS-B
Wed 06:22:12 PM 42.4890 -86.4140 91° East 534 615 35,000  Level FlightAware ADS-B
Wed 06:23:00 PM 42.4870 -86.2530 91° East 534 615 35,000  Level FlightAware ADS-B
Wed 06:23:52 PM 42.4850 -86.0840 91° East 535 616 35,000  Level FlightAware ADS-B
Wed 06:24:35 PM 42.4820 -85.9400 92° East 535 616 35,000  Level FlightAware ADS-B
Wed 06:25:02 PM 42.4800 -85.8510 92° East 535 616 35,000  Level FlightAware ADS-B
Wed 06:25:56 PM 42.4770 -85.6720 91° East 535 616 35,000  Level FlightAware ADS-B
Wed 06:26:52 PM 42.4730 -85.4880 92° East 534 615 35,000  Level FlightAware ADS-B
Wed 06:27:35 PM 42.4700 -85.3400 92° East 533 613 35,000  Level FlightAware ADS-B
Wed 06:28:30 PM 42.4660 -85.1660 92° East 533 613 35,000  Level FlightAware ADS-B
Wed 06:29:21 PM 42.4610 -84.9900 92° East 533 613 35,000  Level FlightAware ADS-B
Wed 06:30:11 PM 42.4570 -84.8340 92° East 532 612 35,000  Level FlightAware ADS-B
Wed 06:30:40 PM 42.4540 -84.7270 92° East 532 612 35,000  Level FlightAware ADS-B
Wed 06:31:41 PM 42.4480 -84.5280 92° East 533 613 35,000  Level FlightAware ADS-B
Wed 06:32:18 PM 42.4440 -84.3950 92° East 533 613 35,000  Level FlightAware ADS-B
Wed 06:33:17 PM 42.4380 -84.2030 92° East 536 617 35,000  Level FlightAware ADS-B
Wed 06:34:14 PM 42.4320 -84.0120 92° East 538 619 35,000  Level FlightAware ADS-B
Wed 06:34:57 PM 42.4270 -83.8690 93° East 539 620 35,000  Level FlightAware ADS-B
Wed 06:35:43 PM 42.4210 -83.7110 93° East 539 620 35,000  Level FlightAware ADS-B
Wed 06:36:37 PM 42.4140 -83.5310 93° East 539 620 35,000  Level FlightAware ADS-B
Wed 06:37:31 PM 42.4070 -83.3480 93° East 538 619 35,000  Level FlightAware ADS-B
Wed 06:37:57 PM 42.4010 -83.2640 95° East 538 619 35,000  Level FlightAware ADS-B
Wed 06:38:56 PM 42.3850 -83.0680 96° East 537 618 35,000  Level FlightAware ADS-B
Wed 06:39:35 PM 42.3740 -82.9340 96° East 537 618 35,000  Level FlightAware ADS-B
Wed 06:40:21 PM 42.3620 -82.7780 96° East 537 618 35,000  Level FlightAware ADS-B
Wed 06:41:10 PM 42.3490 -82.6170 96° East 539 620 35,000  Level FlightAware ADS-B
Wed 06:41:25 PM 42.3450 -82.5670 96° East 540 621 35,000  Level FlightAware ADS-B
Wed 06:42:25 PM 42.3290 -82.3670 96° East 538 619 35,000  Level FlightAware ADS-B
Wed 06:42:54 PM 42.3210 -82.2690 96° East 539 620 35,000  Level FlightAware ADS-B
Wed 06:43:19 PM 42.3150 -82.1920 96° East 539 620 35,000  Level FlightAware ADS-B
Wed 06:44:24 PM 42.2960 -81.9710 97° East 538 619 35,000  Level FlightAware ADS-B
Wed 06:45:13 PM 42.2820 -81.8100 97° East 538 619 35,000  Level FlightAware ADS-B
Wed 06:45:36 PM 42.2750 -81.7300 97° East 539 620 35,000  Level FlightAware ADS-B
Wed 06:46:13 PM 42.2640 -81.6120 97° East 539 620 35,000  Level FlightAware ADS-B
Wed 06:46:41 PM 42.2550 -81.5120 97° East 541 623 35,000  Level FlightAware ADS-B
Wed 06:47:42 PM 42.2370 -81.3090 97° East 543 625 35,000  Level FlightAware ADS-B
Wed 06:48:09 PM 42.2280 -81.2140 97° East 545 627 35,000  Level FlightAware ADS-B
Wed 06:49:08 PM 42.2100 -81.0180 97° East 545 627 35,000  Level FlightAware ADS-B
Wed 06:49:28 PM 42.2030 -80.9500 98° East 545 627 35,000  Level FlightAware ADS-B
Wed 06:50:26 PM 42.1850 -80.7560 97° East 543 625 35,000  Level FlightAware ADS-B
Wed 06:51:14 PM 42.1690 -80.5950 98° East 541 623 35,000  Level FlightAware ADS-B
Wed 06:51:55 PM 42.1560 -80.4630 98° East 540 621 35,000  Level FlightAware ADS-B
Wed 06:53:05 PM 42.1320 -80.2280 98° East 538 619 35,000  Level FlightAware ADS-B
Wed 06:53:38 PM 42.1210 -80.1170 98° East 539 620 35,000  Level FlightAware ADS-B
Wed 06:54:04 PM 42.1120 -80.0310 98° East 539 620 35,000  Level FlightAware ADS-B
Wed 06:55:06 PM 42.0920 -79.8360 98° East 538 619 35,000  Level FlightAware ADS-B
Wed 06:55:56 PM 42.0730 -79.6600 98° East 537 618 35,000  Level FlightAware ADS-B
Wed 06:56:56 PM 42.0520 -79.4630 98° East 535 616 35,000  Level FlightAware ADS-B
Wed 06:57:40 PM 42.0360 -79.3160 98° East 535 616 35,000  Level FlightAware ADS-B
Wed 06:58:41 PM 42.0140 -79.1190 98° East 537 618 35,000  Level FlightAware ADS-B
Wed 06:59:09 PM 42.0040 -79.0270 98° East 538 619 35,000  Level FlightAware ADS-B
Wed 07:00:10 PM 41.9810 -78.8290 99° East 541 623 35,000  Level FlightAware ADS-B
Wed 07:00:31 PM 41.9730 -78.7600 99° East 541 623 35,000  Level FlightAware ADS-B
Wed 07:01:01 PM 41.9610 -78.6540 99° East 541 623 35,000  Level FlightAware ADS-B
Wed 07:01:59 PM 41.9380 -78.4610 99° East 541 623 35,000  Level FlightAware ADS-B
Wed 07:02:39 PM 41.9240 -78.3360 99° East 540 621 35,000  Level FlightAware ADS-B
Wed 07:03:40 PM 41.8990 -78.1340 99° East 541 623 35,000  Level FlightAware ADS-B
Wed 07:04:18 PM 41.8840 -78.0050 99° East 542 624 35,000  Level FlightAware ADS-B
Wed 07:05:13 PM 41.8570 -77.8290 102° East 538 619 35,000  Level FlightAware ADS-B
Wed 07:05:58 PM 41.8200 -77.6800 108° East 536 617 35,000  Level FlightAware ADS-B
Wed 07:06:26 PM 41.7970 -77.5920 109° East 536 617 35,000  Level FlightAware ADS-B
Wed 07:06:54 PM 41.7750 -77.5100 110° East 537 618 35,000  Level FlightAware ADS-B
Wed 07:07:48 PM 41.7290 -77.3400 110° East 537 618 35,000  Level FlightAware ADS-B
Wed 07:08:38 PM 41.6870 -77.1840 110° East 536 617 35,000  Level FlightAware ADS-B
Wed 07:09:34 PM 41.6390 -77.0060 110° East 536 617 35,000  Level FlightAware ADS-B
Wed 07:10:19 PM 41.6020 -76.8690 110° East 536 617 35,000  Level FlightAware ADS-B
Wed 07:11:18 PM 41.5530 -76.6900 110° East 535 616 35,000  Level FlightAware ADS-B
Wed 07:12:08 PM 41.5100 -76.5340 110° East 534 615 35,000  Level FlightAware ADS-B
Wed 07:13:02 PM 41.4640 -76.3660 110° East 534 615 35,000  Level FlightAware ADS-B
Wed 07:13:41 PM 41.4290 -76.2430 111° Southeast 536 617 35,000 -509 Level FlightAware ADS-B
Wed 07:14:48 PM 41.3710 -76.0360 110° East 544 626 34,100 -1,081 Descending FlightAware ADS-B
Wed 07:15:32 PM 41.3340 -75.9030 110° East 540 621 33,000 -2,571 Descending FlightAware ADS-B
Wed 07:16:19 PM 41.2900 -75.7490 111° Southeast 541 623 30,200 -3,548 Descending FlightAware ADS-B
Wed 07:17:05 PM 41.2470 -75.6110 112° Southeast 532 612 27,500 -3,093 Descending FlightAware ADS-B
Wed 07:17:56 PM 41.1970 -75.4620 114° Southeast 505 581 25,200 -2,720 Descending FlightAware ADS-B
Wed 07:18:20 PM 41.1740 -75.3940 114° Southeast 493 567 24,100 -2,211 Descending FlightAware ADS-B
Wed 07:18:53 PM 41.1450 -75.3050 113° Southeast 486 559 23,100 -1,082 Descending FlightAware ADS-B
Wed 07:19:21 PM 41.1180 -75.2280 115° Southeast 482 555 23,000 -68 Descending FlightAware ADS-B
Wed 07:20:21 PM 41.0670 -75.0760 114° Southeast 428 493 23,000  Level FlightAware ADS-B
Wed 07:21:14 PM 41.0270 -74.9600 115° Southeast 379 436 23,000 -240 Level FlightAware ADS-B
Wed 07:22:01 PM 40.9960 -74.8590 112° Southeast 384 442 22,600 -909 Descending FlightAware ADS-B
Wed 07:22:53 PM 40.9810 -74.7370 99° East 375 432 21,500 -1,371 Descending FlightAware ADS-B
Wed 07:23:46 PM 40.9690 -74.6200 98° East 364 419 20,200 -1,485 Descending FlightAware ADS-B
Wed 07:24:34 PM 40.9580 -74.5190 98° East 357 411 19,000 -758 Descending FlightAware ADS-B
Wed 07:25:21 PM 40.9470 -74.4190 98° East 353 406 19,000  Level FlightAware ADS-B
Wed 07:26:21 PM 40.9319 -74.2855 98° East 355 409 19,000 -134 Level FlightAware ADS-B
Wed 07:27:35 PM 40.8943 -74.1404 109° East 338 389 18,700 -914 Descending FlightAware ADS-B
Wed 07:28:06 PM 40.8698 -74.0868 121° Southeast 328 377 17,400 -2,381 Descending FlightAware ADS-B
Wed 07:28:38 PM 40.8442 -74.0315 121° Southeast 324 373 16,200 -2,182 Descending FlightAware ADS-B
Wed 07:28:39 PM 40.8493 -74.0425 301° West 324 373 16,200 -2,710 Level FlightAware ADS-B (KSNC)
Wed 07:29:09 PM 40.8207 -73.9800 121° Southeast 319 367 14,800 -4,244 Descending FlightAware ADS-B
Wed 07:29:20 PM 40.8119 -73.9607 121° Southeast 318 366 13,300 -1,433 Descending FlightAware ADS-B (KSNC)
Wed 07:30:16 PM 40.7684 -73.8688 122° Southeast 317 365 13,200 -77 Descending FlightAware ADS-B
Wed 07:30:38 PM 40.7516 -73.8332 122° Southeast 318 366 13,200  Level FlightAware ADS-B (KSNC)
Wed 07:31:17 PM 40.7272 -73.7809 122° Southeast 300 345 13,200 -353 Level FlightAware ADS-B (KSNC)
Wed 07:31:46 PM 40.6930 -73.7331 133° Southeast 292 336 12,800 -1,952 Descending FlightAware ADS-B (KSNC)
Wed 07:32:40 PM 40.6280 -73.7040 161° South 288 331 10,500 -2,550 Descending FlightAware ADS-B
Wed 07:33:06 PM 40.5930 -73.6890 162° South 293 337 9,400 -2,280 Descending FlightAware ADS-B
Wed 07:33:30 PM 40.5630 -73.6760 162° South 290 334 8,600 -2,118 Descending FlightAware ADS-B
Wed 07:33:57 PM 40.5300 -73.6640 165° South 285 328 7,600 -2,164 Descending FlightAware ADS-B
Wed 07:34:31 PM 40.4870 -73.6480 164° South 273 314 6,400 -2,215 Descending FlightAware ADS-B
Wed 07:35:02 PM 40.4480 -73.6540 187° South 264 304 5,200 -2,182 Descending FlightAware ADS-B
Wed 07:35:26 PM 40.4200 -73.6640 195° South 264 304 4,400 -1,053 Descending FlightAware ADS-B
Wed 07:35:59 PM 40.3830 -73.6770 195° South 244 281 4,200 -526 Descending FlightAware ADS-B
Wed 07:36:23 PM 40.3580 -73.6930 206° Southwest 227 261 3,900 -655 Descending FlightAware ADS-B
Wed 07:36:54 PM 40.3400 -73.7240 233° Southwest 213 245 3,600 -764 Descending FlightAware ADS-B
Wed 07:37:18 PM 40.3390 -73.7540 268° West 206 237 3,200 -955 Descending FlightAware ADS-B
Wed 07:37:38 PM 40.3410 -73.7790 276° West 202 232 2,900 -769 Descending FlightAware ADS-B
Wed 07:37:57 PM 40.3440 -73.8010 280° West 198 228 2,700 -522 Descending FlightAware ADS-B
Wed 07:38:24 PM 40.3560 -73.8240 304° West 186 214 2,500 -367 Descending FlightAware ADS-B
Wed 07:38:46 PM 40.3680 -73.8440 308° West 172 198 2,400 -346 Descending FlightAware ADS-B
Wed 07:39:16 PM 40.3830 -73.8690 308° West 171 197 2,200 -203 Descending FlightAware ADS-B
Wed 07:39:45 PM 40.4030 -73.8780 341° North 174 200 2,200  Level FlightAware ADS-B
Wed 07:40:12 PM 40.4240 -73.8770 North 173 199 2,200  Level FlightAware ADS-B
Wed 07:40:39 PM 40.4470 -73.8760 North 174 200 2,200  Level FlightAware ADS-B
Wed 07:41:03 PM 40.4670 -73.8750 North 176 203 2,200  Level FlightAware ADS-B
Wed 07:41:53 PM 40.5070 -73.8620 14° North 184 212 2,200  Level FlightAware ADS-B
Wed 07:42:34 PM 40.5350 -73.8410 30° Northeast 181 208 2,200 -265 Level FlightAware ADS-B
Wed 07:43:01 PM 40.5560 -73.8240 32° Northeast 177 204 1,900 -764 Descending FlightAware ADS-B
Wed 07:43:29 PM 40.5740 -73.8100 31° Northeast 155 178 1,500 -840 Descending FlightAware ADS-B
Wed 07:43:51 PM 40.5880 -73.7990 31° Northeast 145 167 1,200 -778 Descending FlightAware ADS-B
Wed 07:44:23 PM 40.6060 -73.7860 29° Northeast 137 158 800 -750 Descending FlightAware ADS-B
Wed 07:44:39 PM 40.6140 -73.7790 34° Northeast 141 162 600 -750 Descending FlightAware ADS-B
Wed 07:45:15 PM 40.6330 -73.7640 31° Northeast 110 127 -1,000 Descending FlightAware ADS-B
Wed 07:55:29 PM 40.6390 -73.7760 270° West  Level FlightAware ADS-B

Login

Don't have an account? Register now (free) for customized features, flight alerts, and more!